地図

経路データ

SID SEASON NUMBER BASIN SUBBASIN NAME ISO_TIME NATURE LAT LON WMO_WIND WMO_PRES WMO_AGENCY TRACK_TYPE DIST2LAND LANDFALL IFLAG USA_AGENCY USA_ATCF_ID USA_LAT USA_LON USA_RECORD USA_STATUS USA_WIND USA_PRES USA_SSHS USA_R34_NE USA_R34_SE USA_R34_SW USA_R34_NW USA_R50_NE USA_R50_SE USA_R50_SW USA_R50_NW USA_R64_NE USA_R64_SE USA_R64_SW USA_R64_NW USA_POCI USA_ROCI USA_RMW USA_EYE TOKYO_LAT TOKYO_LON TOKYO_GRADE TOKYO_WIND TOKYO_PRES TOKYO_R50_DIR TOKYO_R50_LONG TOKYO_R50_SHORT TOKYO_R30_DIR TOKYO_R30_LONG TOKYO_R30_SHORT TOKYO_LAND CMA_LAT CMA_LON CMA_CAT CMA_WIND CMA_PRES HKO_LAT HKO_LON HKO_CAT HKO_WIND HKO_PRES NEWDELHI_LAT NEWDELHI_LON NEWDELHI_GRADE NEWDELHI_WIND NEWDELHI_PRES NEWDELHI_CI NEWDELHI_DP NEWDELHI_POCI REUNION_LAT REUNION_LON REUNION_TYPE REUNION_WIND REUNION_PRES REUNION_TNUM REUNION_CI REUNION_RMW REUNION_R34_NE REUNION_R34_SE REUNION_R34_SW REUNION_R34_NW REUNION_R50_NE REUNION_R50_SE REUNION_R50_SW REUNION_R50_NW REUNION_R64_NE REUNION_R64_SE REUNION_R64_SW REUNION_R64_NW BOM_LAT BOM_LON BOM_TYPE BOM_WIND BOM_PRES BOM_TNUM BOM_CI BOM_RMW BOM_R34_NE BOM_R34_SE BOM_R34_SW BOM_R34_NW BOM_R50_NE BOM_R50_SE BOM_R50_SW BOM_R50_NW BOM_R64_NE BOM_R64_SE BOM_R64_SW BOM_R64_NW BOM_ROCI BOM_POCI BOM_EYE BOM_POS_METHOD BOM_PRES_METHOD NADI_LAT NADI_LON NADI_CAT NADI_WIND NADI_PRES WELLINGTON_LAT WELLINGTON_LON WELLINGTON_WIND WELLINGTON_PRES DS824_LAT DS824_LON DS824_STAGE DS824_WIND DS824_PRES TD9636_LAT TD9636_LON TD9636_STAGE TD9636_WIND TD9636_PRES TD9635_LAT TD9635_LON TD9635_WIND TD9635_PRES TD9635_ROCI NEUMANN_LAT NEUMANN_LON NEUMANN_CLASS NEUMANN_WIND NEUMANN_PRES MLC_LAT MLC_LON MLC_CLASS MLC_WIND MLC_PRES USA_GUST BOM_GUST BOM_GUST_PER REUNION_GUST REUNION_GUST_PER USA_SEAHGT USA_SEARAD_NE USA_SEARAD_SE USA_SEARAD_SW USA_SEARAD_NW STORM_SPEED STORM_DIR
1915289N11114 1915 43 WP MM NOT_NAMED 1915-10-15 22:00:00 NR 11.4000 113.700 main 476 449 __________O___ -1 11.4000 113.700 2 8 321
1915289N11114 1915 43 WP MM NOT_NAMED 1915-10-16 00:00:00 NR 11.6012 113.536 main 449 420 __________P___ -1 11.6012 113.536 2 8 321
1915289N11114 1915 43 WP MM NOT_NAMED 1915-10-16 03:00:00 NR 11.9025 113.288 main 420 382 __________P___ -1 11.9025 113.288 2 8 321
1915289N11114 1915 43 WP MM NOT_NAMED 1915-10-16 06:00:00 NR 12.2026 113.038 main 382 358 __________P___ -1 12.2026 113.038 2 8 321
1915289N11114 1915 43 WP MM NOT_NAMED 1915-10-16 09:00:00 NR 12.5010 112.785 main 358 347 __________P___ -1 12.5010 112.785 2 8 320
1915289N11114 1915 43 WP MM NOT_NAMED 1915-10-16 10:00:00 NR 12.6000 112.700 main 347 325 __________O___ -1 12.6000 112.700 2 8 320
1915289N11114 1915 43 WP MM NOT_NAMED 1915-10-16 12:00:00 NR 12.7969 112.528 main 325 303 __________P___ -1 12.7969 112.528 2 8 319
1915289N11114 1915 43 WP MM NOT_NAMED 1915-10-16 15:00:00 NR 13.0861 112.270 main 304 274 __________P___ -1 13.0861 112.270 2 8 319
1915289N11114 1915 43 WP MM NOT_NAMED 1915-10-16 18:00:00 NR 13.3624 112.018 main 276 261 __________P___ -1 13.3624 112.018 2 7 318
1915289N11114 1915 43 WP MM NOT_NAMED 1915-10-16 21:00:00 NR 13.6196 111.777 main 261 254 __________P___ -1 13.6196 111.777 2 7 317
1915289N11114 1915 43 WP MM NOT_NAMED 1915-10-16 22:00:00 NR 13.7000 111.700 main 254 248 __________O___ -1 13.7000 111.700 2 6 318
1915289N11114 1915 43 WP MM NOT_NAMED 1915-10-17 00:00:00 NR 13.8477 111.560 main 248 227 __________P___ -1 13.8477 111.560 2 6 317
1915289N11114 1915 43 WP MM NOT_NAMED 1915-10-17 03:00:00 NR 14.0504 111.364 main 227 207 __________P___ -1 14.0504 111.364 2 5 316
1915289N11114 1915 43 WP MM NOT_NAMED 1915-10-17 06:00:00 NR 14.2415 111.171 main 207 191 __________P___ -1 14.2415 111.171 2 5 315
1915289N11114 1915 43 WP MM NOT_NAMED 1915-10-17 09:00:00 NR 14.4336 110.971 main 191 185 __________P___ -1 14.4336 110.971 2 6 314
1915289N11114 1915 43 WP MM NOT_NAMED 1915-10-17 10:00:00 NR 14.5000 110.900 main 185 170 __________O___ -1 14.5000 110.900 2 6 313
1915289N11114 1915 43 WP MM NOT_NAMED 1915-10-17 12:00:00 NR 14.6417 110.742 main 170 151 __________P___ -1 14.6417 110.742 2 6 312
1915289N11114 1915 43 WP MM NOT_NAMED 1915-10-17 15:00:00 NR 14.8604 110.493 main 152 126 __________P___ -1 14.8604 110.493 2 7 312
1915289N11114 1915 43 WP MM NOT_NAMED 1915-10-17 18:00:00 NR 15.0867 110.236 main 126 116 __________P___ -1 15.0867 110.236 2 7 313
1915289N11114 1915 43 WP MM NOT_NAMED 1915-10-17 21:00:00 NR 15.3204 109.982 main 116 109 __________P___ -1 15.3204 109.982 2 7 314
1915289N11114 1915 43 WP MM NOT_NAMED 1915-10-17 22:00:00 NR 15.4000 109.900 main 109 96 __________O___ -1 15.4000 109.900 2 7 316
1915289N11114 1915 43 WP MM NOT_NAMED 1915-10-18 00:00:00 NR 15.5583 109.744 main 96 92 __________P___ -1 15.5583 109.744 2 7 317
1915289N11114 1915 43 WP MM NOT_NAMED 1915-10-18 03:00:00 NR 15.8019 109.517 main 92 92 __________P___ -1 15.8019 109.517 2 7 319
1915289N11114 1915 43 WP MM NOT_NAMED 1915-10-18 06:00:00 NR 16.0532 109.294 main 100 87 __________P___ -1 16.0532 109.294 2 7 320
1915289N11114 1915 43 WP MM NOT_NAMED 1915-10-18 09:00:00 NR 16.3120 109.074 main 91 81 __________P___ -1 16.3120 109.074 2 7 321
1915289N11114 1915 43 WP MM NOT_NAMED 1915-10-18 10:00:00 NR 16.4000 109.000 main 87 85 __________O___ -1 16.4000 109.000 2 7 321
1915289N11114 1915 43 WP MM NOT_NAMED 1915-10-18 12:00:00 NR 16.5783 108.852 main 92 85 __________P___ -1 16.5783 108.852 2 7 322
1915289N11114 1915 43 WP MM NOT_NAMED 1915-10-18 15:00:00 NR 16.8508 108.628 main 94 94 __________P___ -1 16.8508 108.628 2 7 322
1915289N11114 1915 43 WP MM NOT_NAMED 1915-10-18 18:00:00 NR 17.1276 108.403 main 101 100 __________P___ -1 17.1276 108.403 2 7 322
1915289N11114 1915 43 WP MM NOT_NAMED 1915-10-18 21:00:00 NR 17.4068 108.176 main 109 109 __________P___ -1 17.4068 108.176 2 7 322
1915289N11114 1915 43 WP MM NOT_NAMED 1915-10-18 22:00:00 NR 17.5000 108.100 main 113 __________O___ -1 17.5000 108.100 7 7 322

デジタル台風データ・検索

IBTrACS Databaseについて

本データベースは、米国NOAAが公開する1842年以降の世界の熱帯低気圧のベストトラックデータアーカイブInternational Best Track Archive for Climate Stewardship (IBTrACS)を、ウェブで閲覧しやすい形式に変換したものです。

最終更新日:2021-11-26